sensor_id;sensor_type;location;lat;lon;timestamp;temperature;humidity
45383;DHT22;42455;51.660;5.824;2022-12-07T00:00:22;7.0;98.0
45383;DHT22;42455;51.660;5.824;2022-12-07T00:05:29;6.9;98.0
45383;DHT22;42455;51.660;5.824;2022-12-07T00:10:35;6.9;98.0
45383;DHT22;42455;51.660;5.824;2022-12-07T00:15:41;6.8;98.0
45383;DHT22;42455;51.660;5.824;2022-12-07T00:20:47;6.8;98.0
45383;DHT22;42455;51.660;5.824;2022-12-07T00:25:53;6.7;98.0
45383;DHT22;42455;51.660;5.824;2022-12-07T00:31:00;6.7;98.5
45383;DHT22;42455;51.660;5.824;2022-12-07T00:36:12;6.6;98.0
45383;DHT22;42455;51.660;5.824;2022-12-07T00:41:13;6.6;98.5
45383;DHT22;42455;51.660;5.824;2022-12-07T00:46:20;6.5;98.5
45383;DHT22;42455;51.660;5.824;2022-12-07T00:51:25;6.5;98.5
45383;DHT22;42455;51.660;5.824;2022-12-07T00:56:31;6.5;98.5
45383;DHT22;42455;51.660;5.824;2022-12-07T01:01:37;6.5;98.5
45383;DHT22;42455;51.660;5.824;2022-12-07T01:06:43;6.4;98.5
45383;DHT22;42455;51.660;5.824;2022-12-07T01:11:49;6.4;98.5
45383;DHT22;42455;51.660;5.824;2022-12-07T01:16:55;6.4;98.5
45383;DHT22;42455;51.660;5.824;2022-12-07T01:22:02;6.4;98.5
45383;DHT22;42455;51.660;5.824;2022-12-07T01:27:08;6.4;98.5
45383;DHT22;42455;51.660;5.824;2022-12-07T01:32:14;6.4;98.5
45383;DHT22;42455;51.660;5.824;2022-12-07T01:42:27;6.3;98.5
45383;DHT22;42455;51.660;5.824;2022-12-07T01:47:33;6.2;98.5
45383;DHT22;42455;51.660;5.824;2022-12-07T01:52:42;6.2;98.5
45383;DHT22;42455;51.660;5.824;2022-12-07T01:57:49;6.2;98.5
45383;DHT22;42455;51.660;5.824;2022-12-07T02:02:55;6.2;98.5
45383;DHT22;42455;51.660;5.824;2022-12-07T02:07:58;6.1;98.5
45383;DHT22;42455;51.660;5.824;2022-12-07T02:13:09;6.1;98.5
45383;DHT22;42455;51.660;5.824;2022-12-07T02:18:55;6.0;98.5
45383;DHT22;42455;51.660;5.824;2022-12-07T02:24:31;6.0;98.5
45383;DHT22;42455;51.660;5.824;2022-12-07T02:29:46;6.0;98.5
45383;DHT22;42455;51.660;5.824;2022-12-07T02:33:36;5.9;98.5
45383;DHT22;42455;51.660;5.824;2022-12-07T02:38:40;5.9;98.5
45383;DHT22;42455;51.660;5.824;2022-12-07T02:43:44;5.8;98.5
45383;DHT22;42455;51.660;5.824;2022-12-07T02:48:47;5.8;98.5
45383;DHT22;42455;51.660;5.824;2022-12-07T02:53:52;5.8;98.5
45383;DHT22;42455;51.660;5.824;2022-12-07T02:59:46;5.8;98.5
45383;DHT22;42455;51.660;5.824;2022-12-07T03:04:30;5.7;98.5
45383;DHT22;42455;51.660;5.824;2022-12-07T03:09:29;5.7;98.5
45383;DHT22;42455;51.660;5.824;2022-12-07T03:14:21;5.7;98.5
45383;DHT22;42455;51.660;5.824;2022-12-07T03:19:26;5.7;98.5
45383;DHT22;42455;51.660;5.824;2022-12-07T03:24:33;5.7;98.5
45383;DHT22;42455;51.660;5.824;2022-12-07T03:29:42;5.7;98.5
45383;DHT22;42455;51.660;5.824;2022-12-07T03:34:46;5.7;98.5
45383;DHT22;42455;51.660;5.824;2022-12-07T03:40:00;5.7;98.5
45383;DHT22;42455;51.660;5.824;2022-12-07T03:44:55;5.7;98.5
45383;DHT22;42455;51.660;5.824;2022-12-07T03:50:05;5.6;98.5
45383;DHT22;42455;51.660;5.824;2022-12-07T03:55:14;5.7;98.5
45383;DHT22;42455;51.660;5.824;2022-12-07T04:00:14;5.7;98.5
45383;DHT22;42455;51.660;5.824;2022-12-07T04:05:20;5.7;98.5
45383;DHT22;42455;51.660;5.824;2022-12-07T04:10:27;5.7;98.5
45383;DHT22;42455;51.660;5.824;2022-12-07T04:15:32;5.7;98.5
45383;DHT22;42455;51.660;5.824;2022-12-07T04:20:38;5.7;98.5
45383;DHT22;42455;51.660;5.824;2022-12-07T04:25:47;5.8;98.5
45383;DHT22;42455;51.660;5.824;2022-12-07T04:30:50;5.8;98.5
45383;DHT22;42455;51.660;5.824;2022-12-07T04:35:57;5.9;98.5
45383;DHT22;42455;51.660;5.824;2022-12-07T04:41:04;5.9;98.5
45383;DHT22;42455;51.660;5.824;2022-12-07T04:46:09;5.9;98.5
45383;DHT22;42455;51.660;5.824;2022-12-07T04:51:19;6.0;98.5
45383;DHT22;42455;51.660;5.824;2022-12-07T04:56:22;6.0;98.5
45383;DHT22;42455;51.660;5.824;2022-12-07T05:01:28;6.1;98.5
45383;DHT22;42455;51.660;5.824;2022-12-07T05:06:34;6.1;98.5
45383;DHT22;42455;51.660;5.824;2022-12-07T05:11:40;6.1;98.5
45383;DHT22;42455;51.660;5.824;2022-12-07T05:16:48;6.1;98.5
45383;DHT22;42455;51.660;5.824;2022-12-07T05:21:52;6.0;98.5
45383;DHT22;42455;51.660;5.824;2022-12-07T05:26:59;6.0;98.5
45383;DHT22;42455;51.660;5.824;2022-12-07T05:32:05;6.0;98.5
45383;DHT22;42455;51.660;5.824;2022-12-07T05:37:11;5.9;98.5
45383;DHT22;42455;51.660;5.824;2022-12-07T05:42:17;5.9;98.5
45383;DHT22;42455;51.660;5.824;2022-12-07T05:47:24;5.9;98.5
45383;DHT22;42455;51.660;5.824;2022-12-07T05:52:30;5.9;98.5
45383;DHT22;42455;51.660;5.824;2022-12-07T05:57:36;5.9;98.5
45383;DHT22;42455;51.660;5.824;2022-12-07T06:02:42;5.9;98.5
45383;DHT22;42455;51.660;5.824;2022-12-07T06:07:48;5.9;98.5
45383;DHT22;42455;51.660;5.824;2022-12-07T06:12:55;5.8;98.5
45383;DHT22;42455;51.660;5.824;2022-12-07T06:18:01;5.8;98.5
45383;DHT22;42455;51.660;5.824;2022-12-07T06:23:07;5.8;98.5
45383;DHT22;42455;51.660;5.824;2022-12-07T06:28:13;5.8;98.5
45383;DHT22;42455;51.660;5.824;2022-12-07T06:33:19;5.8;98.5
45383;DHT22;42455;51.660;5.824;2022-12-07T06:38:25;5.8;98.5
45383;DHT22;42455;51.660;5.824;2022-12-07T06:43:32;5.8;98.5
45383;DHT22;42455;51.660;5.824;2022-12-07T06:48:38;5.8;98.5
45383;DHT22;42455;51.660;5.824;2022-12-07T06:53:44;5.8;98.5
45383;DHT22;42455;51.660;5.824;2022-12-07T06:58:50;5.8;98.5
45383;DHT22;42455;51.660;5.824;2022-12-07T07:03:57;5.8;98.5
45383;DHT22;42455;51.660;5.824;2022-12-07T07:09:03;5.7;98.5
45383;DHT22;42455;51.660;5.824;2022-12-07T07:14:09;5.7;98.5
45383;DHT22;42455;51.660;5.824;2022-12-07T07:19:15;5.7;98.5
45383;DHT22;42455;51.660;5.824;2022-12-07T07:24:21;5.7;98.5
45383;DHT22;42455;51.660;5.824;2022-12-07T07:29:28;5.6;98.5
45383;DHT22;42455;51.660;5.824;2022-12-07T07:34:34;5.6;98.5
45383;DHT22;42455;51.660;5.824;2022-12-07T07:39:40;5.6;98.5
45383;DHT22;42455;51.660;5.824;2022-12-07T07:44:46;5.5;98.5
45383;DHT22;42455;51.660;5.824;2022-12-07T07:49:53;5.5;98.5
45383;DHT22;42455;51.660;5.824;2022-12-07T07:54:59;5.5;98.5
45383;DHT22;42455;51.660;5.824;2022-12-07T08:00:07;5.5;98.5
45383;DHT22;42455;51.660;5.824;2022-12-07T08:05:13;5.5;98.5
45383;DHT22;42455;51.660;5.824;2022-12-07T08:10:17;5.4;98.5
45383;DHT22;42455;51.660;5.824;2022-12-07T08:15:23;5.5;98.5
45383;DHT22;42455;51.660;5.824;2022-12-07T08:20:30;5.4;98.5
45383;DHT22;42455;51.660;5.824;2022-12-07T08:25:35;5.5;98.5
45383;DHT22;42455;51.660;5.824;2022-12-07T08:30:41;5.5;98.5
45383;DHT22;42455;51.660;5.824;2022-12-07T08:35:47;5.5;98.5
45383;DHT22;42455;51.660;5.824;2022-12-07T08:40:54;5.5;98.5
45383;DHT22;42455;51.660;5.824;2022-12-07T08:46:07;5.5;98.5
45383;DHT22;42455;51.660;5.824;2022-12-07T08:51:05;5.5;98.5
45383;DHT22;42455;51.660;5.824;2022-12-07T08:56:11;5.6;98.5
45383;DHT22;42455;51.660;5.824;2022-12-07T09:01:17;5.6;98.5
45383;DHT22;42455;51.660;5.824;2022-12-07T09:06:24;5.7;98.5
45383;DHT22;42455;51.660;5.824;2022-12-07T09:11:30;5.7;98.5
45383;DHT22;42455;51.660;5.824;2022-12-07T09:16:36;5.8;98.5
45383;DHT22;42455;51.660;5.824;2022-12-07T09:21:42;5.8;98.5
45383;DHT22;42455;51.660;5.824;2022-12-07T09:26:48;5.9;98.5
45383;DHT22;42455;51.660;5.824;2022-12-07T09:31:55;6.0;98.5
45383;DHT22;42455;51.660;5.824;2022-12-07T09:37:01;6.2;98.5
45383;DHT22;42455;51.660;5.824;2022-12-07T09:42:07;6.3;98.5
45383;DHT22;42455;51.660;5.824;2022-12-07T09:47:13;6.5;98.5
45383;DHT22;42455;51.660;5.824;2022-12-07T09:52:28;6.6;98.5
45383;DHT22;42455;51.660;5.824;2022-12-07T09:57:33;6.7;98.5
45383;DHT22;42455;51.660;5.824;2022-12-07T10:02:50;6.8;98.5
45383;DHT22;42455;51.660;5.824;2022-12-07T10:07:38;6.9;98.5
45383;DHT22;42455;51.660;5.824;2022-12-07T10:13:02;7.1;98.5
45383;DHT22;42455;51.660;5.824;2022-12-07T10:17:51;7.3;98.5
45383;DHT22;42455;51.660;5.824;2022-12-07T10:23:00;7.5;98.5
45383;DHT22;42455;51.660;5.824;2022-12-07T10:28:11;7.7;98.5
45383;DHT22;42455;51.660;5.824;2022-12-07T10:33:27;7.8;98.5
45383;DHT22;42455;51.660;5.824;2022-12-07T10:38:16;8.0;98.5
45383;DHT22;42455;51.660;5.824;2022-12-07T10:43:22;8.1;98.5
45383;DHT22;42455;51.660;5.824;2022-12-07T10:48:42;8.2;98.5
45383;DHT22;42455;51.660;5.824;2022-12-07T10:54:18;8.2;98.5
45383;DHT22;42455;51.660;5.824;2022-12-07T11:00:10;8.3;98.5
45383;DHT22;42455;51.660;5.824;2022-12-07T11:05:06;8.3;98.5
45383;DHT22;42455;51.660;5.824;2022-12-07T11:10:30;8.4;98.5
45383;DHT22;42455;51.660;5.824;2022-12-07T11:15:19;8.4;98.5
45383;DHT22;42455;51.660;5.824;2022-12-07T11:19:34;8.4;98.5
45383;DHT22;42455;51.660;5.824;2022-12-07T11:24:14;8.5;98.5
45383;DHT22;42455;51.660;5.824;2022-12-07T11:30:13;8.6;98.5
45383;DHT22;42455;51.660;5.824;2022-12-07T11:35:15;8.6;98.5
45383;DHT22;42455;51.660;5.824;2022-12-07T11:39:39;8.6;98.5
45383;DHT22;42455;51.660;5.824;2022-12-07T11:44:51;8.7;98.5
45383;DHT22;42455;51.660;5.824;2022-12-07T11:49:51;8.7;98.5
45383;DHT22;42455;51.660;5.824;2022-12-07T11:54:51;8.8;98.0
45383;DHT22;42455;51.660;5.824;2022-12-07T12:00:03;8.8;98.5
45383;DHT22;42455;51.660;5.824;2022-12-07T12:05:13;8.9;98.5
45383;DHT22;42455;51.660;5.824;2022-12-07T12:10:18;9.0;98.5
45383;DHT22;42455;51.660;5.824;2022-12-07T12:16:59;9.1;98.0
45383;DHT22;42455;51.660;5.824;2022-12-07T12:21:22;9.2;97.5
45383;DHT22;42455;51.660;5.824;2022-12-07T12:25:28;9.2;97.5
45383;DHT22;42455;51.660;5.824;2022-12-07T12:30:35;9.2;97.0
45383;DHT22;42455;51.660;5.824;2022-12-07T12:35:38;9.2;97.0
45383;DHT22;42455;51.660;5.824;2022-12-07T12:40:45;9.2;97.0
45383;DHT22;42455;51.660;5.824;2022-12-07T12:51:38;9.2;97.0
45383;DHT22;42455;51.660;5.824;2022-12-07T12:56:54;9.2;97.0
45383;DHT22;42455;51.660;5.824;2022-12-07T13:01:40;9.1;97.0
45383;DHT22;42455;51.660;5.824;2022-12-07T13:06:37;9.1;96.5
45383;DHT22;42455;51.660;5.824;2022-12-07T13:16:41;9.1;96.5
45383;DHT22;42455;51.660;5.824;2022-12-07T13:21:43;9.0;96.5
45383;DHT22;42455;51.660;5.824;2022-12-07T13:26:42;9.0;96.5
45383;DHT22;42455;51.660;5.824;2022-12-07T13:31:47;9.0;96.0
45383;DHT22;42455;51.660;5.824;2022-12-07T13:36:53;9.0;96.0
45383;DHT22;42455;51.660;5.824;2022-12-07T13:41:59;9.0;96.0
45383;DHT22;42455;51.660;5.824;2022-12-07T13:47:21;9.0;96.0
45383;DHT22;42455;51.660;5.824;2022-12-07T13:52:25;9.0;95.5
45383;DHT22;42455;51.660;5.824;2022-12-07T13:57:18;9.0;95.5
45383;DHT22;42455;51.660;5.824;2022-12-07T14:02:29;9.0;95.5
45383;DHT22;42455;51.660;5.824;2022-12-07T14:07:34;9.0;95.0
45383;DHT22;42455;51.660;5.824;2022-12-07T14:12:36;9.0;95.0
45383;DHT22;42455;51.660;5.824;2022-12-07T14:17:50;9.0;95.0
45383;DHT22;42455;51.660;5.824;2022-12-07T14:22:54;9.0;95.0
45383;DHT22;42455;51.660;5.824;2022-12-07T14:27:55;9.0;94.5
45383;DHT22;42455;51.660;5.824;2022-12-07T14:33:01;9.0;94.5
45383;DHT22;42455;51.660;5.824;2022-12-07T14:38:07;8.9;94.5
45383;DHT22;42455;51.660;5.824;2022-12-07T14:43:14;8.9;94.5
45383;DHT22;42455;51.660;5.824;2022-12-07T14:48:18;8.8;94.5
45383;DHT22;42455;51.660;5.824;2022-12-07T14:53:40;8.8;94.5
45383;DHT22;42455;51.660;5.824;2022-12-07T14:58:31;8.7;94.5
45383;DHT22;42455;51.660;5.824;2022-12-07T15:03:37;8.6;94.5
45383;DHT22;42455;51.660;5.824;2022-12-07T15:08:44;8.6;94.5
45383;DHT22;42455;51.660;5.824;2022-12-07T15:13:49;8.5;94.5
45383;DHT22;42455;51.660;5.824;2022-12-07T15:18:56;8.4;94.5
45383;DHT22;42455;51.660;5.824;2022-12-07T15:24:02;8.3;94.5
45383;DHT22;42455;51.660;5.824;2022-12-07T15:29:09;8.1;94.5
45383;DHT22;42455;51.660;5.824;2022-12-07T15:34:14;8.0;94.5
45383;DHT22;42455;51.660;5.824;2022-12-07T15:39:21;7.9;94.5
45383;DHT22;42455;51.660;5.824;2022-12-07T15:44:27;7.8;95.0
45383;DHT22;42455;51.660;5.824;2022-12-07T15:49:33;7.7;95.0
45383;DHT22;42455;51.660;5.824;2022-12-07T15:54:39;7.5;95.0
45383;DHT22;42455;51.660;5.824;2022-12-07T15:59:45;7.4;95.0
45383;DHT22;42455;51.660;5.824;2022-12-07T16:04:52;7.3;95.0
45383;DHT22;42455;51.660;5.824;2022-12-07T16:09:58;7.3;95.0
45383;DHT22;42455;51.660;5.824;2022-12-07T16:15:04;7.2;95.5
45383;DHT22;42455;51.660;5.824;2022-12-07T16:20:10;7.1;95.5
45383;DHT22;42455;51.660;5.824;2022-12-07T16:25:16;7.1;95.5
45383;DHT22;42455;51.660;5.824;2022-12-07T16:30:23;7.0;95.5
45383;DHT22;42455;51.660;5.824;2022-12-07T16:35:29;7.0;95.5
45383;DHT22;42455;51.660;5.824;2022-12-07T16:40:35;6.9;95.5
45383;DHT22;42455;51.660;5.824;2022-12-07T16:45:41;6.9;96.0
45383;DHT22;42455;51.660;5.824;2022-12-07T16:50:48;6.8;96.0
45383;DHT22;42455;51.660;5.824;2022-12-07T16:55:54;6.8;96.0
45383;DHT22;42455;51.660;5.824;2022-12-07T17:01:08;6.7;96.0
45383;DHT22;42455;51.660;5.824;2022-12-07T17:06:15;6.7;96.0
45383;DHT22;42455;51.660;5.824;2022-12-07T17:11:14;6.7;96.0
45383;DHT22;42455;51.660;5.824;2022-12-07T17:16:19;6.6;96.5
45383;DHT22;42455;51.660;5.824;2022-12-07T17:21:25;6.6;96.5
45383;DHT22;42455;51.660;5.824;2022-12-07T17:26:31;6.6;96.5
45383;DHT22;42455;51.660;5.824;2022-12-07T17:31:37;6.6;96.5
45383;DHT22;42455;51.660;5.824;2022-12-07T17:36:43;6.6;97.0
45383;DHT22;42455;51.660;5.824;2022-12-07T17:41:49;6.7;97.0
45383;DHT22;42455;51.660;5.824;2022-12-07T17:46:56;6.7;97.0
45383;DHT22;42455;51.660;5.824;2022-12-07T17:52:02;6.7;97.0
45383;DHT22;42455;51.660;5.824;2022-12-07T17:57:08;6.7;97.0
45383;DHT22;42455;51.660;5.824;2022-12-07T18:02:14;6.7;97.0
45383;DHT22;42455;51.660;5.824;2022-12-07T18:07:21;6.8;97.5
45383;DHT22;42455;51.660;5.824;2022-12-07T18:12:27;6.8;97.5
45383;DHT22;42455;51.660;5.824;2022-12-07T18:17:33;6.8;97.5
45383;DHT22;42455;51.660;5.824;2022-12-07T18:22:39;6.8;97.5
45383;DHT22;42455;51.660;5.824;2022-12-07T18:27:45;6.8;97.5
45383;DHT22;42455;51.660;5.824;2022-12-07T18:32:52;6.8;97.5
45383;DHT22;42455;51.660;5.824;2022-12-07T18:37:58;6.8;97.5
45383;DHT22;42455;51.660;5.824;2022-12-07T18:43:05;6.8;97.5
45383;DHT22;42455;51.660;5.824;2022-12-07T18:48:10;6.8;97.5
45383;DHT22;42455;51.660;5.824;2022-12-07T18:53:16;6.8;97.5
45383;DHT22;42455;51.660;5.824;2022-12-07T18:58:23;6.8;97.5
45383;DHT22;42455;51.660;5.824;2022-12-07T19:03:29;6.8;97.5
45383;DHT22;42455;51.660;5.824;2022-12-07T19:08:35;6.8;97.5
45383;DHT22;42455;51.660;5.824;2022-12-07T19:13:41;6.8;97.5
45383;DHT22;42455;51.660;5.824;2022-12-07T19:18:48;6.8;97.5
45383;DHT22;42455;51.660;5.824;2022-12-07T19:23:54;6.8;97.5
45383;DHT22;42455;51.660;5.824;2022-12-07T19:29:00;6.8;97.5
45383;DHT22;42455;51.660;5.824;2022-12-07T19:34:07;6.8;97.5
45383;DHT22;42455;51.660;5.824;2022-12-07T19:39:13;6.8;97.5
45383;DHT22;42455;51.660;5.824;2022-12-07T19:44:21;6.8;97.5
45383;DHT22;42455;51.660;5.824;2022-12-07T19:49:26;6.8;98.0
45383;DHT22;42455;51.660;5.824;2022-12-07T19:54:31;6.8;98.0
45383;DHT22;42455;51.660;5.824;2022-12-07T19:59:36;6.8;97.5
45383;DHT22;42455;51.660;5.824;2022-12-07T20:04:43;6.8;98.0
45383;DHT22;42455;51.660;5.824;2022-12-07T20:09:48;6.8;98.0
45383;DHT22;42455;51.660;5.824;2022-12-07T20:14:55;6.9;98.0
45383;DHT22;42455;51.660;5.824;2022-12-07T20:20:01;6.9;98.0
45383;DHT22;42455;51.660;5.824;2022-12-07T20:25:08;6.9;98.0
45383;DHT22;42455;51.660;5.824;2022-12-07T20:30:14;6.9;98.0
45383;DHT22;42455;51.660;5.824;2022-12-07T20:35:20;6.9;98.0
45383;DHT22;42455;51.660;5.824;2022-12-07T20:40:26;6.9;98.0
45383;DHT22;42455;51.660;5.824;2022-12-07T20:45:32;6.9;98.0
45383;DHT22;42455;51.660;5.824;2022-12-07T20:50:39;6.9;98.0
45383;DHT22;42455;51.660;5.824;2022-12-07T20:55:45;6.9;98.0
45383;DHT22;42455;51.660;5.824;2022-12-07T21:00:51;6.9;98.0
45383;DHT22;42455;51.660;5.824;2022-12-07T21:06:00;6.9;98.0
45383;DHT22;42455;51.660;5.824;2022-12-07T21:11:05;6.9;98.0
45383;DHT22;42455;51.660;5.824;2022-12-07T21:16:11;6.9;98.0
45383;DHT22;42455;51.660;5.824;2022-12-07T21:21:18;6.9;98.0
45383;DHT22;42455;51.660;5.824;2022-12-07T21:26:23;6.8;98.0
45383;DHT22;42455;51.660;5.824;2022-12-07T21:31:28;6.8;98.0
45383;DHT22;42455;51.660;5.824;2022-12-07T21:36:35;6.8;98.0
45383;DHT22;42455;51.660;5.824;2022-12-07T21:41:40;6.7;98.0
45383;DHT22;42455;51.660;5.824;2022-12-07T21:46:47;6.7;98.0
45383;DHT22;42455;51.660;5.824;2022-12-07T21:51:53;6.7;98.0
45383;DHT22;42455;51.660;5.824;2022-12-07T21:56:59;6.6;98.0
45383;DHT22;42455;51.660;5.824;2022-12-07T22:02:05;6.6;98.0
45383;DHT22;42455;51.660;5.824;2022-12-07T22:07:11;6.6;98.0
45383;DHT22;42455;51.660;5.824;2022-12-07T22:12:18;6.5;98.0
45383;DHT22;42455;51.660;5.824;2022-12-07T22:17:24;6.5;98.0
45383;DHT22;42455;51.660;5.824;2022-12-07T22:22:30;6.5;98.0
45383;DHT22;42455;51.660;5.824;2022-12-07T22:27:37;6.5;98.0
45383;DHT22;42455;51.660;5.824;2022-12-07T22:32:42;6.5;98.0
45383;DHT22;42455;51.660;5.824;2022-12-07T22:37:49;6.5;98.0
45383;DHT22;42455;51.660;5.824;2022-12-07T22:42:56;6.5;98.5
45383;DHT22;42455;51.660;5.824;2022-12-07T22:48:01;6.4;98.5
45383;DHT22;42455;51.660;5.824;2022-12-07T22:53:07;6.5;98.5
45383;DHT22;42455;51.660;5.824;2022-12-07T22:58:14;6.4;98.5
45383;DHT22;42455;51.660;5.824;2022-12-07T23:03:21;6.4;98.5
45383;DHT22;42455;51.660;5.824;2022-12-07T23:08:26;6.4;98.5
45383;DHT22;42455;51.660;5.824;2022-12-07T23:13:32;6.4;98.5
45383;DHT22;42455;51.660;5.824;2022-12-07T23:18:39;6.4;98.5
45383;DHT22;42455;51.660;5.824;2022-12-07T23:23:45;6.4;98.5
45383;DHT22;42455;51.660;5.824;2022-12-07T23:28:51;6.4;98.5
45383;DHT22;42455;51.660;5.824;2022-12-07T23:33:57;6.4;98.5
45383;DHT22;42455;51.660;5.824;2022-12-07T23:39:03;6.4;98.5
45383;DHT22;42455;51.660;5.824;2022-12-07T23:44:10;6.4;98.5
45383;DHT22;42455;51.660;5.824;2022-12-07T23:49:16;6.3;98.5
45383;DHT22;42455;51.660;5.824;2022-12-07T23:54:22;6.3;98.5
45383;DHT22;42455;51.660;5.824;2022-12-07T23:59:28;6.3;98.5
